createdAt,value
2019-04-11T00:00:39.614Z,98993.80
2019-04-11T00:03:09.220Z,98986.61
2019-04-11T00:05:39.067Z,98996.84
2019-04-11T00:08:08.045Z,98993.03
2019-04-11T00:10:37.477Z,98988.13
2019-04-11T00:13:17.379Z,98993.84
2019-04-11T00:15:37.493Z,98991.97
2019-04-11T00:18:06.717Z,98990.39
2019-04-11T00:20:36.082Z,98995.95
2019-04-11T00:23:06.121Z,98996.98
2019-04-11T00:25:35.885Z,98993.34
2019-04-11T00:28:05.707Z,98995.30
2019-04-11T00:30:34.873Z,98995.58
2019-04-11T00:33:04.157Z,99000.48
2019-04-11T00:35:33.581Z,98999.36
2019-04-11T00:38:02.597Z,98998.42
2019-04-11T00:40:31.706Z,99007.21
2019-04-11T00:43:01.109Z,99008.53
2019-04-11T00:45:31.793Z,99011.25
2019-04-11T00:48:01.588Z,99009.63
2019-04-11T00:50:31.631Z,99009.30
2019-04-11T00:53:01.482Z,99003.98
2019-04-11T00:55:31.356Z,99005.45
2019-04-11T00:58:01.389Z,99003.33
2019-04-11T01:00:31.183Z,99001.17
2019-04-11T01:03:00.051Z,99009.30
2019-04-11T01:05:29.782Z,99007.10
2019-04-11T01:07:59.595Z,99010.39
2019-04-11T01:10:28.391Z,99004.66
2019-04-11T01:12:57.336Z,99000.81
2019-04-11T01:15:27.177Z,99004.55
2019-04-11T01:17:57.984Z,99000.41
2019-04-11T01:20:27.231Z,99003.58
2019-04-11T01:22:56.422Z,99004.94
2019-04-11T01:25:25.406Z,99011.98
2019-04-11T01:27:54.417Z,99007.91
2019-04-11T01:33:04.557Z,99011.06
2019-04-11T01:35:33.671Z,99017.23
2019-04-11T01:38:02.677Z,99017.55
2019-04-11T01:40:31.925Z,99012.77
2019-04-11T01:43:01.907Z,99015.75
2019-04-11T01:45:31.653Z,99014.06
2019-04-11T01:48:11.146Z,99021.09
2019-04-11T01:50:41.186Z,99020.25
2019-04-11T01:53:11.012Z,99021.22
2019-04-11T01:55:40.833Z,99022.59
2019-04-11T01:58:10.767Z,99023.13
2019-04-11T02:01:04.673Z,99024.17
2019-04-11T02:03:45.496Z,99025.47
2019-04-11T02:06:14.356Z,99025.87
2019-04-11T02:08:43.852Z,99023.67
2019-04-11T02:11:13.067Z,99026.22
2019-04-11T02:13:41.842Z,99026.03
2019-04-11T02:16:10.788Z,99025.42
2019-04-11T02:18:40.064Z,99031.45
2019-04-11T02:21:09.410Z,99030.11
2019-04-11T02:24:07.773Z,99034.10
2019-04-11T02:26:37.730Z,99035.00
2019-04-11T02:29:06.761Z,99035.40
2019-04-11T02:31:36.966Z,99034.66
2019-04-11T02:34:08.625Z,99043.38
2019-04-11T02:36:38.409Z,99044.52
2019-04-11T02:39:16.678Z,99045.48
2019-04-11T02:41:42.052Z,99047.73
2019-04-11T02:44:27.153Z,99044.61
2019-04-11T02:46:50.725Z,99052.06
2019-04-11T02:49:12.098Z,99047.92
2019-04-11T02:51:42.966Z,99046.89
2019-04-11T02:54:13.536Z,99046.38
2019-04-11T02:56:43.607Z,99050.28
2019-04-11T02:59:13.508Z,99050.01
2019-04-11T03:01:43.910Z,99050.81
2019-04-11T03:04:14.793Z,99042.38
2019-04-11T03:06:45.667Z,99047.48
2019-04-11T03:09:15.403Z,99051.63
2019-04-11T03:11:47.129Z,99047.73
2019-04-11T03:14:16.889Z,99055.70
2019-04-11T03:16:57.280Z,99056.97
2019-04-11T03:19:30.089Z,99052.40
2019-04-11T03:21:49.936Z,99057.50
2019-04-11T03:24:21.673Z,99056.09
2019-04-11T03:26:52.626Z,99052.40
2019-04-11T03:29:21.787Z,99052.59
2019-04-11T03:32:34.237Z,99056.81
2019-04-11T03:35:12.300Z,99066.62
2019-04-11T03:37:23.066Z,99068.89
2019-04-11T03:39:48.869Z,99063.53
2019-04-11T03:42:11.141Z,99069.01
2019-04-11T03:44:31.430Z,99062.98
2019-04-11T03:47:14.393Z,99064.59
2019-04-11T03:49:36.749Z,99066.18
2019-04-11T03:51:59.170Z,99066.56
2019-04-11T03:54:29.484Z,99066.91
2019-04-11T03:56:59.199Z,99074.42
2019-04-11T03:59:28.977Z,99071.36
2019-04-11T04:01:59.721Z,99074.06
2019-04-11T04:04:29.151Z,99072.94
2019-04-11T04:07:21.384Z,99077.64
2019-04-11T04:09:51.219Z,99087.70
2019-04-11T04:12:20.927Z,99085.98
2019-04-11T04:15:37.830Z,99088.92
2019-04-11T04:18:00.965Z,99093.47
2019-04-11T04:20:53.115Z,99092.38
2019-04-11T04:23:27.384Z,99099.93
2019-04-11T04:25:58.529Z,99104.13
2019-04-11T04:28:29.294Z,99098.08
2019-04-11T04:31:00.091Z,99098.94
2019-04-11T04:33:30.637Z,99108.08
2019-04-11T04:36:00.695Z,99107.45
2019-04-11T04:38:33.650Z,99109.36
2019-04-11T04:41:33.444Z,99113.03
2019-04-11T04:43:54.903Z,99118.93
2019-04-11T04:46:39.758Z,99122.27
2019-04-11T04:48:55.989Z,99122.06
2019-04-11T04:51:26.634Z,99124.97
2019-04-11T04:53:55.759Z,99129.41
2019-04-11T04:56:29.532Z,99126.84
2019-04-11T04:58:56.025Z,99111.59
2019-04-11T05:01:26.451Z,99033.98
2019-04-11T05:03:56.407Z,99140.84
2019-04-11T05:06:26.214Z,99142.28
2019-04-11T05:08:56.048Z,99139.16
2019-04-11T05:11:26.268Z,99151.94
2019-04-11T05:13:56.633Z,99144.95
2019-04-11T05:16:25.694Z,99152.54
2019-04-11T05:18:54.834Z,99144.98
2019-04-11T05:21:23.503Z,99145.13
2019-04-11T05:23:52.476Z,99145.45
2019-04-11T05:26:21.590Z,99154.63
2019-04-11T05:28:51.038Z,99151.03
2019-04-11T05:31:20.620Z,99150.23
2019-04-11T05:33:49.745Z,99163.14
2019-04-11T05:36:18.704Z,99161.72
2019-04-11T05:38:48.666Z,99161.49
2019-04-11T05:41:20.177Z,99163.08
2019-04-11T05:43:48.023Z,99163.23
2019-04-11T05:46:31.124Z,99173.00
2019-04-11T05:48:57.987Z,99170.95
2019-04-11T05:51:23.858Z,99171.33
2019-04-11T05:53:54.560Z,99177.55
2019-04-11T05:56:43.720Z,99175.28
2019-04-11T05:59:18.896Z,99180.50
2019-04-11T06:02:08.229Z,99180.30
2019-04-11T06:04:50.060Z,99182.72
2019-04-11T06:07:23.213Z,99182.06
2019-04-11T06:09:54.709Z,99185.44
2019-04-11T06:12:43.464Z,99181.29
2019-04-11T06:15:21.383Z,99185.09
2019-04-11T06:17:50.387Z,99189.50
2019-04-11T06:20:35.607Z,99193.98
2019-04-11T06:23:23.362Z,99195.31
2019-04-11T06:26:03.111Z,99195.28
2019-04-11T06:28:32.628Z,99204.67
2019-04-11T06:31:40.392Z,99209.23
2019-04-11T06:34:09.286Z,99205.52
2019-04-11T06:36:55.207Z,99207.21
2019-04-11T06:39:43.832Z,99209.14
2019-04-11T06:42:27.506Z,99212.90
2019-04-11T06:45:29.911Z,99212.30
2019-04-11T06:48:07.319Z,99217.13
2019-04-11T06:50:44.482Z,99210.98
2019-04-11T06:53:16.749Z,99221.86
2019-04-11T06:56:03.757Z,99218.97
2019-04-11T06:58:37.339Z,99222.07
2019-04-11T07:01:11.885Z,99215.45
2019-04-11T07:03:49.003Z,99218.34
2019-04-11T07:06:20.151Z,99219.20
2019-04-11T07:08:59.077Z,99228.30
2019-04-11T07:11:36.562Z,99225.84
2019-04-11T07:14:22.774Z,99228.55
2019-04-11T07:17:10.610Z,99233.03
2019-04-11T07:19:57.307Z,99228.94
2019-04-11T07:22:43.713Z,99228.94
2019-04-11T07:25:37.430Z,99231.73
2019-04-11T07:28:14.442Z,99230.58
2019-04-11T07:31:21.554Z,99227.78
2019-04-11T07:34:12.172Z,99240.59
2019-04-11T07:37:00.123Z,99235.64
2019-04-11T07:39:45.032Z,99249.02
2019-04-11T07:42:37.363Z,99242.95
2019-04-11T07:45:11.603Z,99242.03
2019-04-11T07:47:46.088Z,99241.87
2019-04-11T07:50:16.759Z,99245.05
2019-04-11T07:52:51.723Z,99247.08
2019-04-11T07:55:22.800Z,99250.54
2019-04-11T07:57:56.681Z,99257.55
2019-04-11T08:00:52.875Z,99254.30
2019-04-11T08:03:46.978Z,99259.50
2019-04-11T08:06:33.384Z,99258.29
2019-04-11T08:09:19.582Z,99262.19
2019-04-11T08:12:04.550Z,99260.57
2019-04-11T08:14:55.285Z,99267.08
2019-04-11T08:17:36.507Z,99265.73
2019-04-11T08:20:15.698Z,99267.59
2019-04-11T08:22:47.566Z,99266.33
2019-04-11T08:25:50.797Z,99265.59
2019-04-11T08:28:20.551Z,99261.78
2019-04-11T08:31:15.171Z,99266.12
2019-04-11T08:33:44.291Z,99266.69
2019-04-11T08:36:24.010Z,99271.06
2019-04-11T08:38:53.256Z,99271.36
2019-04-11T08:41:40.035Z,99273.27
2019-04-11T08:44:20.622Z,99273.80
2019-04-11T08:46:54.101Z,99276.27
2019-04-11T08:49:32.255Z,99283.61
2019-04-11T08:52:05.534Z,99278.68
2019-04-11T08:54:51.400Z,99276.50
2019-04-11T08:57:31.865Z,99283.05
2019-04-11T09:00:33.036Z,99280.00
2019-04-11T09:03:11.370Z,99280.00
2019-04-11T09:05:54.065Z,99283.02
2019-04-11T09:09:00.661Z,99287.91
2019-04-11T09:11:38.826Z,99285.72
2019-04-11T09:14:22.323Z,99279.69
2019-04-11T09:16:58.308Z,99281.58
2019-04-11T09:19:34.804Z,99280.22
2019-04-11T09:22:29.120Z,99277.51
2019-04-11T09:25:30.508Z,99275.11
2019-04-11T09:28:09.239Z,99271.26
2019-04-11T09:30:57.253Z,99268.28
2019-04-11T09:33:57.550Z,99270.45
2019-04-11T09:36:55.467Z,99270.96
2019-04-11T09:39:37.216Z,99265.79
2019-04-11T09:42:24.239Z,99255.13
2019-04-11T09:45:05.504Z,99266.75
2019-04-11T09:47:57.706Z,99260.38
2019-04-11T09:50:53.192Z,99255.67
2019-04-11T09:53:22.725Z,99260.58
2019-04-11T09:56:09.213Z,99263.73
2019-04-11T09:58:38.163Z,99260.45
2019-04-11T10:01:25.063Z,99262.39
2019-04-11T10:03:54.166Z,99255.81
2019-04-11T10:06:41.798Z,99256.38
2019-04-11T10:09:11.466Z,99260.22
2019-04-11T10:12:02.391Z,99260.25
2019-04-11T10:14:31.587Z,99264.34
2019-04-11T10:17:26.875Z,99266.70
2019-04-11T10:19:58.607Z,99257.48
2019-04-11T10:22:50.021Z,99263.02
2019-04-11T10:25:31.892Z,99261.45
2019-04-11T10:28:21.566Z,99273.28
2019-04-11T10:31:04.277Z,99271.14
2019-04-11T10:33:51.031Z,99265.95
2019-04-11T10:36:25.365Z,99273.02
2019-04-11T10:39:18.181Z,99269.84
2019-04-11T10:41:50.456Z,99276.42
2019-04-11T10:44:25.744Z,99276.44
2019-04-11T10:46:59.854Z,99271.80
2019-04-11T10:49:46.418Z,99277.00
2019-04-11T10:52:34.210Z,99274.81
2019-04-11T10:55:05.837Z,99275.13
2019-04-11T10:57:38.429Z,99273.72
2019-04-11T11:00:14.191Z,99274.53
2019-04-11T11:03:06.230Z,99274.53
2019-04-11T11:05:36.380Z,99283.28
2019-04-11T11:08:21.574Z,99277.28
2019-04-11T11:10:52.142Z,99280.03
2019-04-11T11:13:40.757Z,99269.68
2019-04-11T11:16:09.610Z,99275.64
2019-04-11T11:19:24.470Z,99280.55
2019-04-11T11:21:33.284Z,99276.16
2019-04-11T11:24:33.770Z,99278.57
2019-04-11T11:27:04.518Z,99283.46
2019-04-11T11:29:54.008Z,99284.17
2019-04-11T11:32:31.803Z,99293.13
2019-04-11T11:35:26.064Z,99293.90
2019-04-11T11:37:57.539Z,99297.48
2019-04-11T11:40:56.538Z,99301.91
2019-04-11T11:43:30.962Z,99302.48
2019-04-11T11:46:19.355Z,99307.60
2019-04-11T11:48:54.151Z,99302.69
2019-04-11T11:51:37.364Z,99301.14
2019-04-11T11:54:11.779Z,99305.80
2019-04-11T11:56:42.438Z,99301.16
2019-04-11T11:59:18.248Z,99302.80
2019-04-11T12:01:54.294Z,99307.89
2019-04-11T12:04:42.133Z,99309.02
2019-04-11T12:07:12.761Z,99310.41
2019-04-11T12:10:13.361Z,99308.77
2019-04-11T12:12:51.997Z,99298.70
2019-04-11T12:15:43.503Z,99297.91
2019-04-11T12:18:31.232Z,99297.95
2019-04-11T12:21:03.317Z,99302.59
2019-04-11T12:24:06.682Z,99302.81
2019-04-11T12:26:43.230Z,99301.48
2019-04-11T12:29:30.496Z,99301.50
2019-04-11T12:32:01.231Z,99300.95
2019-04-11T12:34:49.392Z,99299.58
2019-04-11T12:37:25.229Z,99302.81
2019-04-11T12:40:31.616Z,99296.03
2019-04-11T12:43:01.512Z,99304.20
2019-04-11T12:45:55.049Z,99306.12
2019-04-11T12:48:34.772Z,99308.86
2019-04-11T12:51:37.480Z,99306.66
2019-04-11T12:54:10.301Z,99304.53
2019-04-11T12:56:56.801Z,99303.14
2019-04-11T12:59:28.260Z,99300.97
2019-04-11T13:02:28.931Z,99301.53
2019-04-11T13:04:58.094Z,99299.06
2019-04-11T13:07:44.609Z,99300.17
2019-04-11T13:10:45.947Z,99299.91
2019-04-11T13:13:45.872Z,99297.18
2019-04-11T13:16:16.341Z,99300.20
2019-04-11T13:19:04.335Z,99291.75
2019-04-11T13:21:45.375Z,99294.20
2019-04-11T13:24:45.751Z,99293.42
2019-04-11T13:27:23.163Z,99293.39
2019-04-11T13:30:14.212Z,99299.95
2019-04-11T13:32:46.278Z,99295.57
2019-04-11T13:35:31.719Z,99296.67
2019-04-11T13:38:04.176Z,99293.93
2019-04-11T13:40:47.081Z,99298.86
2019-04-11T13:43:23.742Z,99299.13
2019-04-11T13:46:01.234Z,99301.03
2019-04-11T13:48:48.940Z,99300.20
2019-04-11T13:51:27.475Z,99302.38
2019-04-11T13:54:24.482Z,99301.02
2019-04-11T13:57:12.212Z,99298.87
2019-04-11T13:59:59.571Z,99296.69
2019-04-11T14:02:50.655Z,99301.84
2019-04-11T14:05:11.528Z,99293.95
2019-04-11T14:07:40.567Z,99292.05
2019-04-11T14:10:09.597Z,99296.14
2019-04-11T14:12:39.040Z,99289.85
2019-04-11T14:15:11.151Z,99281.95
2019-04-11T14:17:46.181Z,99285.75
2019-04-11T14:20:33.297Z,99283.56
2019-04-11T14:23:23.891Z,99286.03
2019-04-11T14:26:14.553Z,99294.47
2019-04-11T14:29:15.017Z,99286.55
2019-04-11T14:32:02.952Z,99283.81
2019-04-11T14:34:57.015Z,99279.73
2019-04-11T14:37:44.073Z,99278.63
2019-04-11T14:40:31.133Z,99276.97
2019-04-11T14:43:28.010Z,99281.34
2019-04-11T14:46:16.056Z,99282.73
2019-04-11T14:49:05.686Z,99284.96
2019-04-11T14:51:58.402Z,99286.59
2019-04-11T14:55:01.288Z,99280.86
2019-04-11T14:57:47.088Z,99274.88
2019-04-11T15:00:25.073Z,99281.70
2019-04-11T15:03:25.413Z,99278.16
2019-04-11T15:06:14.853Z,99279.53
2019-04-11T15:08:53.282Z,99271.64
2019-04-11T15:11:39.956Z,99273.80
2019-04-11T15:14:17.667Z,99272.44
2019-04-11T15:17:18.446Z,99274.34
2019-04-11T15:19:53.635Z,99272.72
2019-04-11T15:22:47.977Z,99280.06
2019-04-11T15:25:24.147Z,99280.59
2019-04-11T15:28:07.987Z,99274.08
2019-04-11T15:30:38.459Z,99273.80
2019-04-11T15:33:41.759Z,99269.72
2019-04-11T15:36:19.197Z,99269.72
2019-04-11T15:39:10.049Z,99271.61
2019-04-11T15:41:40.172Z,99270.53
2019-04-11T15:44:36.826Z,99274.91
2019-04-11T15:47:07.887Z,99277.63
2019-04-11T15:49:55.864Z,99274.91
2019-04-11T15:52:24.605Z,99274.62
2019-04-11T15:55:11.221Z,99270.81
2019-04-11T15:57:52.426Z,99277.08
2019-04-11T16:00:43.904Z,99277.63
2019-04-11T16:03:24.539Z,99272.19
2019-04-11T16:06:10.977Z,99278.16
2019-04-11T16:08:44.780Z,99271.90
2019-04-11T16:11:32.672Z,99274.08
2019-04-11T16:14:06.823Z,99281.43
2019-04-11T16:17:00.348Z,99280.89
2019-04-11T16:19:42.227Z,99280.60
2019-04-11T16:22:29.956Z,99292.31
2019-04-11T16:25:00.755Z,99292.54
2019-04-11T16:27:48.810Z,99292.55
2019-04-11T16:30:18.938Z,99289.53
2019-04-11T16:32:55.145Z,99297.73
2019-04-11T16:35:32.940Z,99293.10
2019-04-11T16:38:02.600Z,99284.09
2019-04-11T16:40:53.484Z,99294.39
2019-04-11T16:43:24.110Z,99293.85
2019-04-11T16:46:09.897Z,99298.20
2019-04-11T16:48:38.638Z,99299.81
2019-04-11T16:51:07.400Z,99305.56
2019-04-11T16:53:36.182Z,99304.72
2019-04-11T16:56:05.280Z,99307.70
2019-04-11T16:58:34.742Z,99310.97
2019-04-11T17:01:03.564Z,99309.09
2019-04-11T17:03:32.344Z,99307.20
2019-04-11T17:06:07.136Z,99314.05
2019-04-11T17:08:40.834Z,99311.51
2019-04-11T17:11:18.893Z,99313.89
2019-04-11T17:13:47.504Z,99317.52
2019-04-11T17:16:20.121Z,99312.91
2019-04-11T17:18:49.347Z,99324.81
2019-04-11T17:21:18.066Z,99324.19
2019-04-11T17:23:48.604Z,99324.78
2019-04-11T17:26:17.836Z,99319.92
2019-04-11T17:28:46.798Z,99324.17
2019-04-11T17:31:15.671Z,99318.67
2019-04-11T17:33:44.997Z,99323.81
2019-04-11T17:36:13.826Z,99323.33
2019-04-11T17:38:42.596Z,99322.21
2019-04-11T17:41:12.372Z,99327.87
2019-04-11T17:43:42.264Z,99325.41
2019-04-11T17:46:11.084Z,99330.09
2019-04-11T17:48:40.033Z,99332.26
2019-04-11T17:51:09.647Z,99332.52
2019-04-11T17:53:38.528Z,99334.09
2019-04-11T17:56:07.261Z,99339.55
2019-04-11T17:58:35.995Z,99342.53
2019-04-11T18:01:06.589Z,99339.78
2019-04-11T18:03:35.629Z,99341.69
2019-04-11T18:06:04.466Z,99348.48
2019-04-11T18:08:33.473Z,99341.14
2019-04-11T18:11:02.171Z,99353.34
2019-04-11T18:13:31.735Z,99355.48
2019-04-11T18:16:01.769Z,99353.06
2019-04-11T18:18:34.855Z,99354.72
2019-04-11T18:21:01.650Z,99356.81
2019-04-11T18:23:30.465Z,99360.70
2019-04-11T18:25:59.146Z,99358.98
2019-04-11T18:28:28.174Z,99363.75
2019-04-11T18:30:56.869Z,99364.82
2019-04-11T18:33:25.757Z,99365.62
2019-04-11T18:35:54.576Z,99360.39
2019-04-11T18:38:23.302Z,99364.47
2019-04-11T18:40:51.996Z,99366.62
2019-04-11T18:43:20.847Z,99363.83
2019-04-11T18:45:49.819Z,99371.97
2019-04-11T18:48:18.557Z,99367.95
2019-04-11T18:50:47.313Z,99369.77
2019-04-11T18:53:16.089Z,99373.80
2019-04-11T18:55:45.266Z,99380.87
2019-04-11T18:58:14.237Z,99377.86
2019-04-11T19:00:42.995Z,99376.91
2019-04-11T19:03:14.252Z,99381.02
2019-04-11T19:05:43.005Z,99378.53
2019-04-11T19:08:13.120Z,99381.09
2019-04-11T19:10:45.153Z,99386.13
2019-04-11T19:13:16.737Z,99383.17
2019-04-11T19:15:45.801Z,99385.98
2019-04-11T19:18:16.302Z,99389.91
2019-04-11T19:20:45.429Z,99388.19
2019-04-11T19:23:14.203Z,99387.86
2019-04-11T19:25:45.094Z,99385.78
2019-04-11T19:28:13.732Z,99386.42
2019-04-11T19:30:42.586Z,99386.91
2019-04-11T19:33:11.488Z,99389.50
2019-04-11T19:35:41.590Z,99389.50
2019-04-11T19:38:23.838Z,99394.50
2019-04-11T19:40:52.608Z,99396.85
2019-04-11T19:43:21.393Z,99399.34
2019-04-11T19:45:50.575Z,99399.77
2019-04-11T19:48:19.255Z,99396.39
2019-04-11T19:50:47.941Z,99398.81
2019-04-11T19:53:16.669Z,99402.16
2019-04-11T19:58:52.135Z,99403.83
2019-04-11T20:01:23.522Z,99404.34
2019-04-11T20:03:53.927Z,99399.94
2019-04-11T20:06:22.251Z,99399.56
2019-04-11T20:08:51.201Z,99406.83
2019-04-11T20:11:20.436Z,99215.21
2019-04-11T20:13:49.431Z,99400.77
2019-04-11T20:16:18.372Z,99407.25
2019-04-11T20:18:51.181Z,99399.88
2019-04-11T20:21:18.333Z,99408.25
2019-04-11T20:23:47.277Z,99411.23
2019-04-11T20:26:19.948Z,99407.61
2019-04-11T20:28:48.190Z,99407.00
2019-04-11T20:31:17.769Z,99400.24
2019-04-11T20:33:46.730Z,99400.80
2019-04-11T20:36:15.398Z,99399.10
2019-04-11T20:38:44.740Z,99396.88
2019-04-11T20:41:14.511Z,99407.92
2019-04-11T20:43:43.346Z,99400.59
2019-04-11T20:46:11.989Z,99404.02
2019-04-11T20:48:41.186Z,99400.73
2019-04-11T20:51:10.178Z,99402.23
2019-04-11T20:53:39.466Z,99402.02
2019-04-11T20:56:09.954Z,99407.95
2019-04-11T20:58:40.287Z,99400.32
2019-04-11T21:01:09.040Z,99404.13
2019-04-11T21:03:37.736Z,99409.87
2019-04-11T21:06:09.027Z,99408.20
2019-04-11T21:08:37.985Z,99411.78
2019-04-11T21:11:06.694Z,99420.17
2019-04-11T21:13:39.994Z,99408.94
2019-04-11T21:16:08.691Z,99407.30
2019-04-11T21:18:37.704Z,99404.48
2019-04-11T21:21:09.762Z,99405.48
2019-04-11T21:23:37.639Z,99403.49
2019-04-11T21:26:06.348Z,99408.61
2019-04-11T21:28:35.036Z,99401.90
2019-04-11T21:31:03.820Z,99404.30
2019-04-11T21:33:34.930Z,99407.83
2019-04-11T21:36:03.436Z,99405.39
2019-04-11T21:38:34.597Z,99406.95
2019-04-11T21:41:05.889Z,99407.37
2019-04-11T21:43:36.275Z,99406.63
2019-04-11T21:46:06.870Z,99409.75
2019-04-11T21:48:36.091Z,99406.10
2019-04-11T21:51:05.502Z,99406.66
2019-04-11T21:53:36.793Z,99406.87
2019-04-11T21:56:04.631Z,99410.41
2019-04-11T21:58:33.614Z,99414.03
2019-04-11T22:01:07.303Z,99420.42
2019-04-11T22:03:36.057Z,99413.92
2019-04-11T22:06:04.909Z,99422.13
2019-04-11T22:08:34.373Z,99414.37
2019-04-11T22:11:04.594Z,99417.89
2019-04-11T22:13:33.256Z,99418.95
2019-04-11T22:16:02.192Z,99412.84
2019-04-11T22:18:30.934Z,99413.87
2019-04-11T22:20:59.626Z,99410.57
2019-04-11T22:23:28.310Z,99405.39
2019-04-11T22:25:56.986Z,99416.40
2019-04-11T22:28:25.687Z,99405.20
2019-04-11T22:30:55.144Z,99411.61
2019-04-11T22:33:31.849Z,99419.45
2019-04-11T22:36:00.791Z,99416.77
2019-04-11T22:38:30.956Z,99416.13
2019-04-11T22:41:02.027Z,99424.47
2019-04-11T22:43:31.512Z,99427.41
2019-04-11T22:46:00.476Z,99419.37
2019-04-11T22:48:29.151Z,99422.02
2019-04-11T22:50:57.843Z,99421.37
2019-04-11T22:53:26.609Z,99422.91
2019-04-11T22:55:55.526Z,99417.98
2019-04-11T22:58:24.443Z,99416.77
2019-04-11T23:00:53.433Z,99420.37
2019-04-11T23:03:33.179Z,99421.07
2019-04-11T23:06:02.209Z,99416.58
2019-04-11T23:08:31.264Z,99422.59
2019-04-11T23:11:00.258Z,99423.39
2019-04-11T23:13:28.959Z,99421.01
2019-04-11T23:15:57.737Z,99420.63
2019-04-11T23:18:26.751Z,99424.47
2019-04-11T23:20:56.043Z,99422.22
2019-04-11T23:23:25.116Z,99422.78
2019-04-11T23:25:54.115Z,99421.66
2019-04-11T23:28:23.125Z,99417.62
2019-04-11T23:30:51.815Z,99420.57
2019-04-11T23:33:21.448Z,99421.56
2019-04-11T23:35:51.231Z,99421.45
2019-04-11T23:38:23.558Z,99420.90
2019-04-11T23:40:51.787Z,99416.73
2019-04-11T23:43:20.944Z,99416.80
2019-04-11T23:45:51.209Z,99416.02
2019-04-11T23:48:23.834Z,99422.00
2019-04-11T23:50:54.750Z,99424.09
2019-04-11T23:53:21.674Z,99421.31
2019-04-11T23:55:50.518Z,99424.58
2019-04-11T23:58:19.719Z,99424.02
